createdAt,value
2022-09-16T00:01:51.257Z,87.04
2022-09-16T00:06:51.114Z,86.43
2022-09-16T00:11:51.048Z,88.16
2022-09-16T00:16:51.056Z,88.87
2022-09-16T00:21:50.919Z,87.99
2022-09-16T00:26:50.881Z,88.65
2022-09-16T00:31:50.825Z,86.98
2022-09-16T00:36:50.718Z,86.98
2022-09-16T00:41:50.639Z,87.59
2022-09-16T00:46:50.714Z,87.93
2022-09-16T00:51:50.503Z,86.47
2022-09-16T00:56:50.440Z,86.47
2022-09-16T01:01:50.496Z,87.49
2022-09-16T01:06:50.293Z,87.79
2022-09-16T01:11:50.273Z,88.10
2022-09-16T01:16:50.190Z,88.44
2022-09-16T01:21:50.122Z,86.71
2022-09-16T01:26:50.061Z,85.70
2022-09-16T01:31:50.091Z,85.86
2022-09-16T01:36:49.880Z,84.13
2022-09-16T01:41:50.026Z,84.23
2022-09-16T01:46:49.793Z,85.15
2022-09-16T01:51:49.668Z,83.32
2022-09-16T01:56:49.665Z,84.23
2022-09-16T02:01:49.727Z,84.64
2022-09-16T02:06:49.467Z,83.08
2022-09-16T02:11:49.666Z,82.43
2022-09-16T02:16:49.336Z,81.35
2022-09-16T02:21:49.283Z,81.86
2022-09-16T02:26:49.199Z,81.76
2022-09-16T02:31:52.408Z,82.03
2022-09-16T02:36:50.086Z,83.14
2022-09-16T02:41:49.024Z,83.18
2022-09-16T02:46:49.178Z,83.69
2022-09-16T02:51:48.907Z,82.78
2022-09-16T02:56:48.868Z,84.30
2022-09-16T03:01:48.797Z,83.38
2022-09-16T03:06:48.666Z,83.08
2022-09-16T03:11:48.641Z,84.70
2022-09-16T03:16:48.541Z,84.20
2022-09-16T03:21:48.465Z,84.80
2022-09-16T03:26:48.398Z,83.28
2022-09-16T03:31:48.369Z,82.78
2022-09-16T03:36:48.252Z,82.53
2022-09-16T03:41:48.226Z,82.23
2022-09-16T03:46:48.164Z,83.34
2022-09-16T03:51:48.218Z,82.67
2022-09-16T03:56:48.066Z,84.40
2022-09-16T04:01:48.107Z,83.89
2022-09-16T04:06:47.900Z,85.86
2022-09-16T04:11:47.780Z,84.09
2022-09-16T04:16:47.752Z,83.59
2022-09-16T04:21:47.658Z,83.00
2022-09-16T04:26:47.570Z,80.71
2022-09-16T04:31:47.516Z,81.66
2022-09-16T04:36:47.473Z,82.47
2022-09-16T04:41:47.374Z,83.99
2022-09-16T04:46:47.305Z,82.84
2022-09-16T04:51:47.233Z,82.03
2022-09-16T04:56:47.221Z,81.82
2022-09-16T05:01:47.195Z,81.56
2022-09-16T05:06:47.054Z,81.11
2022-09-16T05:11:46.972Z,81.62
2022-09-16T05:16:46.903Z,83.04
2022-09-16T05:21:46.900Z,79.69
2022-09-16T05:26:46.864Z,79.90
2022-09-16T05:31:46.719Z,79.99
2022-09-16T05:36:46.643Z,79.65
2022-09-16T05:41:46.563Z,78.13
2022-09-16T05:46:46.517Z,78.64
2022-09-16T05:51:46.437Z,77.48
2022-09-16T05:56:46.393Z,78.50
2022-09-16T06:01:46.583Z,77.89
2022-09-16T06:06:46.252Z,78.23
2022-09-16T06:11:46.181Z,77.41
2022-09-16T06:16:46.133Z,75.65
2022-09-16T06:21:46.057Z,77.04
2022-09-16T06:26:45.985Z,78.02
2022-09-16T06:31:46.187Z,77.84
2022-09-16T06:36:45.964Z,72.55
2022-09-16T06:41:45.799Z,70.62
2022-09-16T06:46:45.727Z,70.96
2022-09-16T06:51:45.665Z,72.31
2022-09-16T06:56:45.586Z,72.24
2022-09-16T07:01:45.625Z,73.69
2022-09-16T07:07:08.221Z,72.38
2022-09-16T07:11:46.388Z,72.64
2022-09-16T07:16:45.391Z,70.42
2022-09-16T07:21:45.268Z,71.53
2022-09-16T07:26:45.181Z,68.54
2022-09-16T07:31:45.132Z,68.77
2022-09-16T07:36:45.052Z,68.01
2022-09-16T07:41:45.001Z,68.13
2022-09-16T07:46:44.978Z,69.85
2022-09-16T07:51:45.144Z,68.24
2022-09-16T07:56:44.818Z,67.50
2022-09-16T08:01:44.786Z,68.21
2022-09-16T08:06:44.674Z,68.01
2022-09-16T08:11:44.624Z,67.97
2022-09-16T08:16:44.615Z,66.99
2022-09-16T08:21:44.462Z,67.97
2022-09-16T08:26:44.464Z,65.49
2022-09-16T08:31:44.477Z,63.62
2022-09-16T08:36:44.261Z,61.25
2022-09-16T08:41:44.199Z,61.58
2022-09-16T08:46:44.125Z,63.15
2022-09-16T08:51:44.104Z,63.01
2022-09-16T08:56:44.990Z,65.36
2022-09-16T09:01:44.418Z,65.22
2022-09-16T09:06:43.890Z,64.54
2022-09-16T09:11:43.823Z,66.93
2022-09-16T09:16:44.082Z,66.89
2022-09-16T09:21:43.712Z,68.00
2022-09-16T09:26:43.600Z,69.18
2022-09-16T09:31:43.606Z,68.27
2022-09-16T09:36:43.473Z,67.60
2022-09-16T09:41:43.401Z,65.52
2022-09-16T09:46:43.343Z,65.32
2022-09-16T09:51:43.269Z,64.15
2022-09-16T09:56:43.199Z,64.72
2022-09-16T10:01:43.186Z,62.92
2022-09-16T10:06:43.067Z,60.68
2022-09-16T10:11:43.016Z,61.24
2022-09-16T10:16:42.994Z,61.67
2022-09-16T10:21:43.090Z,61.98
2022-09-16T10:26:42.817Z,64.28
2022-09-16T10:31:42.840Z,69.82
2022-09-16T10:36:42.682Z,73.02
2022-09-16T10:41:42.618Z,77.54
2022-09-16T10:46:42.619Z,79.46
2022-09-16T10:51:42.479Z,78.86
2022-09-16T10:56:42.415Z,77.81
2022-09-16T11:01:45.973Z,75.81
2022-09-16T11:06:42.323Z,73.62
2022-09-16T11:11:42.210Z,72.61
2022-09-16T11:16:42.215Z,75.87
2022-09-16T11:21:42.107Z,71.87
2022-09-16T11:26:42.162Z,69.85
2022-09-16T11:31:42.037Z,71.44
2022-09-16T11:36:41.881Z,70.83
2022-09-16T11:41:41.846Z,74.66
2022-09-16T11:46:41.853Z,71.40
2022-09-16T11:51:41.722Z,72.07
2022-09-16T11:56:41.619Z,68.58
2022-09-16T12:01:41.629Z,68.58
2022-09-16T12:06:41.504Z,69.32
2022-09-16T12:11:41.414Z,67.50
2022-09-16T12:16:41.346Z,67.00
2022-09-16T12:21:41.286Z,66.56
2022-09-16T12:26:41.225Z,62.91
2022-09-16T12:31:41.362Z,62.38
2022-09-16T12:36:41.077Z,62.71
2022-09-16T12:41:41.068Z,61.04
2022-09-16T12:46:41.009Z,62.35
2022-09-16T12:51:40.918Z,61.31
2022-09-16T12:56:40.838Z,60.33
2022-09-16T13:01:40.905Z,61.65
2022-09-16T13:06:40.712Z,61.38
2022-09-16T13:16:41.580Z,58.99
2022-09-16T13:21:40.522Z,58.09
2022-09-16T13:26:40.452Z,56.08
2022-09-16T13:31:40.514Z,56.35
2022-09-16T13:36:40.499Z,58.31
2022-09-16T13:41:40.266Z,57.21
2022-09-16T13:46:40.237Z,57.41
2022-09-16T13:51:40.115Z,57.89
2022-09-16T13:56:40.052Z,56.03
2022-09-16T14:01:56.038Z,57.50
2022-09-16T14:06:40.918Z,59.39
2022-09-16T14:11:39.878Z,64.35
2022-09-16T14:16:39.853Z,62.44
2022-09-16T14:21:39.950Z,60.72
2022-09-16T14:26:39.659Z,60.63
2022-09-16T14:31:39.664Z,58.67
2022-09-16T14:36:39.536Z,61.39
2022-09-16T14:41:39.510Z,58.16
2022-09-16T14:46:39.408Z,59.80
2022-09-16T14:51:39.383Z,61.16
2022-09-16T14:56:39.284Z,58.31
2022-09-16T15:01:39.284Z,60.02
2022-09-16T15:06:39.176Z,58.11
2022-09-16T15:11:51.978Z,57.12
2022-09-16T15:16:39.098Z,55.79
2022-09-16T15:21:39.066Z,57.05
2022-09-16T15:26:39.031Z,61.69
2022-09-16T15:31:38.960Z,61.56
2022-09-16T15:36:38.739Z,57.32
2022-09-16T15:41:38.677Z,59.47
2022-09-16T15:46:39.503Z,61.79
2022-09-16T15:51:38.610Z,59.57
2022-09-16T15:56:42.661Z,60.98
2022-09-16T16:01:39.590Z,59.47
2022-09-16T16:06:38.331Z,59.80
2022-09-16T16:11:38.282Z,59.09
2022-09-16T16:16:55.298Z,62.76
2022-09-16T16:21:39.142Z,61.55
2022-09-16T16:26:38.091Z,61.57
2022-09-16T16:31:38.249Z,63.02
2022-09-16T16:36:38.017Z,63.10
2022-09-16T16:41:37.881Z,65.59
2022-09-16T16:46:37.991Z,65.59
2022-09-16T16:51:37.838Z,66.74
2022-09-16T16:56:37.717Z,68.73
2022-09-16T17:01:37.772Z,70.86
2022-09-16T17:06:37.623Z,69.54
2022-09-16T17:11:37.504Z,71.47
2022-09-16T17:16:37.463Z,71.80
2022-09-16T17:21:37.364Z,73.80
2022-09-16T17:26:37.297Z,71.30
2022-09-16T17:31:37.239Z,72.04
2022-09-16T17:36:37.225Z,74.48
2022-09-16T17:41:37.091Z,73.46
2022-09-16T17:46:37.041Z,72.99
2022-09-16T17:51:36.947Z,75.87
2022-09-16T17:56:36.893Z,75.52
2022-09-16T18:01:36.827Z,75.87
2022-09-16T18:06:38.326Z,76.37
2022-09-16T18:11:36.785Z,76.37
2022-09-16T18:16:36.701Z,76.17
2022-09-16T18:21:36.539Z,75.56
2022-09-16T18:26:36.468Z,76.21
2022-09-16T18:31:36.387Z,76.82
2022-09-16T18:36:36.344Z,78.30
2022-09-16T18:41:36.468Z,75.80
2022-09-16T18:46:36.309Z,75.19
2022-09-16T18:51:36.157Z,74.88
2022-09-16T18:56:36.096Z,75.29
2022-09-16T19:01:36.155Z,74.48
2022-09-16T19:06:35.936Z,75.36
2022-09-16T19:11:35.898Z,75.09
2022-09-16T19:16:35.958Z,72.69
2022-09-16T19:21:35.742Z,73.29
2022-09-16T19:26:35.678Z,75.70
2022-09-16T19:31:35.609Z,74.14
2022-09-16T19:36:35.536Z,71.94
2022-09-16T19:41:35.449Z,74.34
2022-09-16T19:46:35.518Z,73.43
2022-09-16T19:51:35.332Z,73.46
2022-09-16T19:56:35.243Z,72.21
2022-09-16T20:01:35.304Z,72.62
2022-09-16T20:06:35.182Z,73.83
2022-09-16T20:11:35.042Z,71.77
2022-09-16T20:16:35.002Z,72.45
2022-09-16T20:21:35.327Z,73.19
2022-09-16T20:26:34.882Z,73.83
2022-09-16T20:31:34.854Z,73.33
2022-09-16T20:36:34.720Z,77.02
2022-09-16T20:41:34.650Z,74.38
2022-09-16T20:46:34.610Z,75.73
2022-09-16T20:51:34.562Z,76.48
2022-09-16T20:56:37.953Z,78.45
2022-09-16T21:01:34.453Z,77.94
2022-09-16T21:06:34.333Z,76.62
2022-09-16T21:11:34.274Z,77.20
2022-09-16T21:16:34.287Z,73.67
2022-09-16T21:21:34.165Z,74.07
2022-09-16T21:26:34.075Z,73.39
2022-09-16T21:31:34.223Z,75.67
2022-09-16T21:36:33.961Z,73.09
2022-09-16T21:41:33.894Z,70.62
2022-09-16T21:46:33.881Z,74.14
2022-09-16T21:51:33.948Z,73.02
2022-09-16T21:56:33.719Z,70.31
2022-09-16T22:01:33.715Z,69.40
2022-09-16T22:06:33.599Z,74.31
2022-09-16T22:11:33.509Z,73.26
2022-09-16T22:16:33.498Z,68.79
2022-09-16T22:21:33.356Z,74.55
2022-09-16T22:26:33.314Z,72.58
2022-09-16T22:31:33.298Z,69.94
2022-09-16T22:36:33.236Z,72.45
2022-09-16T22:41:33.154Z,71.33
2022-09-16T22:46:33.143Z,69.98
2022-09-16T22:51:33.031Z,71.73
2022-09-16T22:56:33.167Z,71.57
2022-09-16T23:01:33.046Z,70.42
2022-09-16T23:06:34.791Z,70.65
2022-09-16T23:11:32.770Z,70.35
2022-09-16T23:16:32.730Z,71.53
2022-09-16T23:21:32.599Z,73.84
2022-09-16T23:26:32.561Z,69.91
2022-09-16T23:31:32.560Z,70.75
2022-09-16T23:36:32.527Z,72.82
2022-09-16T23:41:32.699Z,72.14
2022-09-16T23:46:32.364Z,73.16
2022-09-16T23:51:32.254Z,72.69
2022-09-16T23:56:32.188Z,72.78
